Naniwamaru No.23 — JI3716 — position and weather

sailwx.info

Track history (hours):
 
Tides and Currents Weather Stations Pressure Air Temp Water Temp Dewpoint Dewpoint Depression Visibility Wind Speed Wind Dir Waves Ship Positions

Naniwamaru No.23

Last reported at 2018-Jul-21 10:46 UTC. Time now 2018-Jul-22 04:33 UTC.
Position N 34°24' E 134°15'.

Length 71 m; draft 4 m.

Type: Tanker. MMSI: 431301706.

Date/timePositionNaut miles runAvg speedWind from/ knotsBaromVisibWave heightAir tempDewpointWater temp
2018-Jul-21 10:46N 34°24' E 134°15'3112.7
2018-Jul-21 08:18N 34°09' E 134°48'513.2
2018-Jul-21 07:56N 34°08' E 134°54'512.4
2018-Jul-21 07:30N 34°08' E 135°01'611.3
2018-Jul-21 07:00N 34°07' E 135°07'0 0.0
2018-Jul-21 04:46N 34°07' E 135°07'1 2.1
2018-Jul-21 04:30N 34°08' E 135°07'0 0.1
2018-Jul-21 04:01N 34°08' E 135°08'0 0.0
2018-Jul-21 03:30N 34°08' E 135°08'0 0.0
2018-Jul-21 03:00N 34°08' E 135°08'0 0.1
2018-Jul-21 02:30N 34°08' E 135°07'0 0.0
2018-Jul-21 02:00N 34°08' E 135°07'0 0.1
2018-Jul-21 01:30N 34°08' E 135°08'0 0.0
2018-Jul-21 01:01N 34°08' E 135°08'0 0.1
2018-Jul-21 00:30N 34°08' E 135°07'0 0.0
2018-Jul-21 00:00N 34°08' E 135°07'0 0.0
2018-Jul-20 23:30N 34°08' E 135°07'0 0.9
2018-Jul-20 23:00N 34°08' E 135°07'612.6
2018-Jul-20 22:30N 34°08' E 134°59'712.9
2018-Jul-20 21:58N 34°08' E 134°51'913.5
2018-Jul-20 21:20N 34°12' E 134°42'1014.1
2018-Jul-20 20:39N 34°17' E 134°32'213.9
2018-Jul-20 20:30N 34°18' E 134°30'713.8
2018-Jul-20 19:58N 34°21' E 134°21'  
2018-Jul-17 09:50N 34°25' E 134°23'612.9
2018-Jul-17 09:25N 34°27' E 134°29'512.5
2018-Jul-17 09:00N 34°29' E 134°35'612.5
2018-Jul-17 08:30N 34°32' E 134°42'612.0
2018-Jul-17 08:00N 34°34' E 134°49'610.9
2018-Jul-17 07:28N 34°36' E 134°55'6 9.5
2018-Jul-17 06:49N 34°37' E 135°02'310.6
2018-Jul-17 06:30N 34°36' E 135°06'612.3
2018-Jul-17 06:00N 34°34' E 135°14'612.6
2018-Jul-17 05:30N 34°33' E 135°21'4 1.7
2018-Jul-17 03:07N 34°34' E 135°26'0 0.0
2018-Jul-17 03:00N 34°34' E 135°26'0 0.0
2018-Jul-17 02:27N 34°34' E 135°26'0 0.0
2018-Jul-17 02:00N 34°34' E 135°26'0 0.0
2018-Jul-17 01:30N 34°34' E 135°26'0 0.0
2018-Jul-17 01:00N 34°34' E 135°26'0 0.3
2018-Jul-17 00:30N 34°33' E 135°26'2 2.4
2018-Jul-16 23:30N 34°33' E 135°23'510.4
2018-Jul-16 23:00N 34°33' E 135°17'713.9
2018-Jul-16 22:30N 34°34' E 135°08'1513.9
2018-Jul-16 21:26N 34°33' E 134°50'614.5
2018-Jul-16 21:00N 34°31' E 134°43'714.3
2018-Jul-16 20:29N 34°28' E 134°35'714.3
2018-Jul-16 20:00N 34°25' E 134°27'  
2018-Jul-14 12:55N 34°24' E 134°16'614.2
2018-Jul-14 12:30N 34°25' E 134°23'713.9
2018-Jul-14 12:00N 34°28' E 134°31'713.4
2018-Jul-14 11:30N 34°30' E 134°38'714.5
2018-Jul-14 11:01N 34°33' E 134°46'1415.6
2018-Jul-14 10:08N 34°37' E 135°02'214.9
2018-Jul-14 10:01N 34°36' E 135°04'611.7
2018-Jul-14 09:30N 34°35' E 135°11'612.2
2018-Jul-14 09:00N 34°34' E 135°19'611.5
2018-Jul-14 08:29N 34°33' E 135°26'0 0.4
2018-Jul-14 07:57N 34°34' E 135°26'0 0.1
2018-Jul-14 07:30N 34°34' E 135°26'0 0.0
2018-Jul-14 06:54N 34°34' E 135°26'0 0.0
2018-Jul-14 05:08N 34°34' E 135°26'0 0.0
2018-Jul-14 05:00N 34°34' E 135°26'0 0.0
2018-Jul-14 03:41N 34°34' E 135°26'0 0.8
2018-Jul-14 03:30N 34°33' E 135°26'1 2.8
2018-Jul-14 03:00N 34°33' E 135°24'510.0
2018-Jul-14 02:30N 34°33' E 135°18'1 1.5
2018-Jul-14 02:00N 34°33' E 135°17'0 0.0
2018-Jul-14 01:30N 34°33' E 135°17'0 0.8
2018-Jul-14 01:00N 34°33' E 135°17'713.3
2018-Jul-14 00:30N 34°35' E 135°09'712.5
2018-Jul-13 23:59N 34°37' E 135°02'910.9
2018-Jul-13 23:10N 34°34' E 134°51'612.6
2018-Jul-13 22:42N 34°32' E 134°45'212.6
2018-Jul-13 22:30N 34°31' E 134°42'713.2
2018-Jul-13 22:00N 34°28' E 134°34'713.2
2018-Jul-13 21:29N 34°26' E 134°27'  
Track history (hours):
 
Tides and Currents Weather Stations Pressure Air Temp Water Temp Dewpoint Dewpoint Depression Visibility Wind Speed Wind Dir Waves Ship Positions

Naniwamaru No.23

Last reported at 2018-Jul-21 10:46 UTC. Time now 2018-Jul-22 04:33 UTC.
Position N 34°24' E 134°15'.

Length 71 m; draft 4 m.

Type: Tanker. MMSI: 431301706.

Date/timePositionNaut miles runAvg speedWind from/ knotsBaromVisibWave heightAir tempDewpointWater temp
2018-Jul-21 10:46N 34°24' E 134°15'3112.7
2018-Jul-21 08:18N 34°09' E 134°48'513.2
2018-Jul-21 07:56N 34°08' E 134°54'512.4
2018-Jul-21 07:30N 34°08' E 135°01'611.3
2018-Jul-21 07:00N 34°07' E 135°07'0 0.0
2018-Jul-21 04:46N 34°07' E 135°07'1 2.1
2018-Jul-21 04:30N 34°08' E 135°07'0 0.1
2018-Jul-21 04:01N 34°08' E 135°08'0 0.0
2018-Jul-21 03:30N 34°08' E 135°08'0 0.0
2018-Jul-21 03:00N 34°08' E 135°08'0 0.1
2018-Jul-21 02:30N 34°08' E 135°07'0 0.0
2018-Jul-21 02:00N 34°08' E 135°07'0 0.1
2018-Jul-21 01:30N 34°08' E 135°08'0 0.0
2018-Jul-21 01:01N 34°08' E 135°08'0 0.1
2018-Jul-21 00:30N 34°08' E 135°07'0 0.0
2018-Jul-21 00:00N 34°08' E 135°07'0 0.0
2018-Jul-20 23:30N 34°08' E 135°07'0 0.9
2018-Jul-20 23:00N 34°08' E 135°07'612.6
2018-Jul-20 22:30N 34°08' E 134°59'712.9
2018-Jul-20 21:58N 34°08' E 134°51'913.5
2018-Jul-20 21:20N 34°12' E 134°42'1014.1
2018-Jul-20 20:39N 34°17' E 134°32'213.9
2018-Jul-20 20:30N 34°18' E 134°30'713.8
2018-Jul-20 19:58N 34°21' E 134°21'  
2018-Jul-17 09:50N 34°25' E 134°23'612.9
2018-Jul-17 09:25N 34°27' E 134°29'512.5
2018-Jul-17 09:00N 34°29' E 134°35'612.5
2018-Jul-17 08:30N 34°32' E 134°42'612.0
2018-Jul-17 08:00N 34°34' E 134°49'610.9
2018-Jul-17 07:28N 34°36' E 134°55'6 9.5
2018-Jul-17 06:49N 34°37' E 135°02'310.6
2018-Jul-17 06:30N 34°36' E 135°06'612.3
2018-Jul-17 06:00N 34°34' E 135°14'612.6
2018-Jul-17 05:30N 34°33' E 135°21'4 1.7
2018-Jul-17 03:07N 34°34' E 135°26'0 0.0
2018-Jul-17 03:00N 34°34' E 135°26'0 0.0
2018-Jul-17 02:27N 34°34' E 135°26'0 0.0
2018-Jul-17 02:00N 34°34' E 135°26'0 0.0
2018-Jul-17 01:30N 34°34' E 135°26'0 0.0
2018-Jul-17 01:00N 34°34' E 135°26'0 0.3
2018-Jul-17 00:30N 34°33' E 135°26'2 2.4
2018-Jul-16 23:30N 34°33' E 135°23'510.4
2018-Jul-16 23:00N 34°33' E 135°17'713.9
2018-Jul-16 22:30N 34°34' E 135°08'1513.9
2018-Jul-16 21:26N 34°33' E 134°50'614.5
2018-Jul-16 21:00N 34°31' E 134°43'714.3
2018-Jul-16 20:29N 34°28' E 134°35'714.3
2018-Jul-16 20:00N 34°25' E 134°27'  
2018-Jul-14 12:55N 34°24' E 134°16'614.2
2018-Jul-14 12:30N 34°25' E 134°23'713.9
2018-Jul-14 12:00N 34°28' E 134°31'713.4
2018-Jul-14 11:30N 34°30' E 134°38'714.5
2018-Jul-14 11:01N 34°33' E 134°46'1415.6
2018-Jul-14 10:08N 34°37' E 135°02'214.9
2018-Jul-14 10:01N 34°36' E 135°04'611.7
2018-Jul-14 09:30N 34°35' E 135°11'612.2
2018-Jul-14 09:00N 34°34' E 135°19'611.5
2018-Jul-14 08:29N 34°33' E 135°26'0 0.4
2018-Jul-14 07:57N 34°34' E 135°26'0 0.1
2018-Jul-14 07:30N 34°34' E 135°26'0 0.0
2018-Jul-14 06:54N 34°34' E 135°26'0 0.0
2018-Jul-14 05:08N 34°34' E 135°26'0 0.0
2018-Jul-14 05:00N 34°34' E 135°26'0 0.0
2018-Jul-14 03:41N 34°34' E 135°26'0 0.8
2018-Jul-14 03:30N 34°33' E 135°26'1 2.8
2018-Jul-14 03:00N 34°33' E 135°24'510.0
2018-Jul-14 02:30N 34°33' E 135°18'1 1.5
2018-Jul-14 02:00N 34°33' E 135°17'0 0.0
2018-Jul-14 01:30N 34°33' E 135°17'0 0.8
2018-Jul-14 01:00N 34°33' E 135°17'713.3
2018-Jul-14 00:30N 34°35' E 135°09'712.5
2018-Jul-13 23:59N 34°37' E 135°02'910.9
2018-Jul-13 23:10N 34°34' E 134°51'612.6
2018-Jul-13 22:42N 34°32' E 134°45'212.6
2018-Jul-13 22:30N 34°31' E 134°42'713.2
2018-Jul-13 22:00N 34°28' E 134°34'713.2
2018-Jul-13 21:29N 34°26' E 134°27'  

Dump ship's entire track history